Time;durP1;ratioP1;P1;durP2;ratioP2;P2;SDS_P1;SDS_P2;PMS_P1;PMS_P2;Temp;Humidity;BMP_temperature;BMP_pressure;BME280_temperature;BME280_humidity;BME280_pressure;Samples;Min_cycle;Max_cycle;Signal;HPM_P1;HPM_P2
2022/08/17 00:00:34;;;;;;;10.10;9.40;;;20.90;84.80;;;;;;6251174;23;20447;-49
2022/08/17 00:03:18;;;;;;;9.50;8.70;;;20.90;85.00;;;;;;6250837;23;20432;-49
2022/08/17 00:05:45;;;;;;;9.23;8.53;;;20.80;85.00;;;;;;6249007;23;20761;-44
2022/08/17 00:08:13;;;;;;;10.23;9.33;;;20.80;85.20;;;;;;6250971;23;20440;-46
2022/08/17 00:10:41;;;;;;;9.80;8.80;;;20.80;85.30;;;;;;6250592;23;20789;-46
2022/08/17 00:13:16;;;;;;;10.40;9.50;;;20.80;85.30;;;;;;6250505;23;20674;-48
2022/08/17 00:15:43;;;;;;;9.70;8.90;;;20.70;85.40;;;;;;6250135;23;20738;-46
2022/08/17 00:18:09;;;;;;;9.00;8.30;;;20.70;85.40;;;;;;6250113;23;20392;-45
2022/08/17 00:20:35;;;;;;;9.07;8.27;;;20.70;85.60;;;;;;6251029;23;20359;-48
2022/08/17 00:23:15;;;;;;;8.80;8.20;;;20.70;85.60;;;;;;6250107;23;20147;-47
2022/08/17 00:25:44;;;;;;;8.77;7.93;;;20.70;85.80;;;;;;6250402;23;20163;-47
2022/08/17 00:28:11;;;;;;;9.67;8.87;;;20.60;85.70;;;;;;6250181;23;20842;-45
2022/08/17 00:30:37;;;;;;;9.33;8.53;;;20.60;85.90;;;;;;6251006;23;20365;-47
2022/08/17 00:33:12;;;;;;;9.47;8.50;;;20.60;86.00;;;;;;6251497;23;20621;-48
2022/08/17 00:35:39;;;;;;;9.23;8.53;;;20.60;86.20;;;;;;6251301;23;20495;-51
2022/08/17 00:38:08;;;;;;;9.23;8.43;;;20.60;86.40;;;;;;6250666;23;20375;-47
2022/08/17 00:40:36;;;;;;;9.77;8.97;;;20.60;86.50;;;;;;6250887;23;20452;-51
2022/08/17 00:43:32;;;;;;;10.17;9.37;;;20.60;86.70;;;;;;6249580;23;20379;-45
2022/08/17 00:46:00;;;;;;;9.20;8.50;;;20.50;86.80;;;;;;6251118;23;20362;-50
2022/08/17 00:48:26;;;;;;;9.10;8.40;;;20.50;87.10;;;;;;6250297;23;20392;-48
2022/08/17 00:51:02;;;;;;;9.30;8.60;;;20.50;87.30;;;;;;6251173;23;20433;-47
2022/08/17 00:53:30;;;;;;;10.03;9.33;;;20.50;87.30;;;;;;6248871;23;20848;-49
2022/08/17 00:55:58;;;;;;;9.80;9.00;;;20.40;88.10;;;;;;6248994;23;20419;-47
2022/08/17 00:58:24;;;;;;;9.47;8.57;;;20.40;87.60;;;;;;6249639;23;20405;-46
2022/08/17 01:00:50;;;;;;;9.67;8.87;;;20.40;87.90;;;;;;6250149;23;20361;-48
2022/08/17 01:03:21;;;;;;;9.57;8.87;;;20.40;87.90;;;;;;6250195;23;20785;-49
2022/08/17 01:05:50;;;;;;;9.50;8.70;;;20.30;87.90;;;;;;6250216;23;20712;-48
2022/08/17 01:08:18;;;;;;;9.43;8.63;;;20.30;88.00;;;;;;6248934;23;20378;-48
2022/08/17 01:10:52;;;;;;;9.97;9.07;;;20.30;88.10;;;;;;6223708;23;20403;-48
2022/08/17 01:13:18;;;;;;;9.17;8.50;;;20.30;88.20;;;;;;6248484;23;20422;-50
2022/08/17 01:15:51;;;;;;;9.53;8.83;;;20.30;88.20;;;;;;6250102;23;20411;-48
2022/08/17 01:18:17;;;;;;;9.73;8.93;;;20.30;88.30;;;;;;6250877;23;20370;-47
2022/08/17 01:20:52;;;;;;;9.70;8.90;;;20.20;88.30;;;;;;6250198;23;20717;-46
2022/08/17 01:23:21;;;;;;;9.50;8.50;;;20.20;88.50;;;;;;6250033;23;20145;-49
2022/08/17 01:25:53;;;;;;;8.87;8.17;;;20.20;88.60;;;;;;6249201;23;20384;-48
2022/08/17 01:28:19;;;;;;;8.77;7.97;;;20.20;88.60;;;;;;6250972;23;20390;-48
2022/08/17 01:30:46;;;;;;;9.30;8.70;;;20.20;88.60;;;;;;6249939;23;20454;-45
2022/08/17 01:33:12;;;;;;;9.03;8.33;;;20.20;88.60;;;;;;6249857;23;20382;-48
2022/08/17 01:35:38;;;;;;;9.23;8.43;;;20.20;88.70;;;;;;6249881;23;20515;-47
2022/08/17 01:38:05;;;;;;;10.20;9.40;;;20.20;88.80;;;;;;6249744;23;20233;-48
2022/08/17 01:40:37;;;;;;;9.03;8.33;;;20.10;88.80;;;;;;6249436;23;20366;-47
2022/08/17 01:43:13;;;;;;;9.23;8.43;;;20.10;88.90;;;;;;6250170;23;20430;-48
2022/08/17 01:45:43;;;;;;;9.97;9.17;;;20.10;89.00;;;;;;6249342;23;20370;-49
2022/08/17 01:48:09;;;;;;;9.70;8.90;;;20.10;89.10;;;;;;6250149;23;20390;-46
2022/08/17 01:50:39;;;;;;;10.43;9.63;;;20.10;89.10;;;;;;6249864;23;20364;-47
2022/08/17 01:53:12;;;;;;;9.30;8.40;;;20.10;89.20;;;;;;6249861;23;20387;-48
2022/08/17 01:55:46;;;;;;;9.20;8.50;;;20.10;90.00;;;;;;6249274;23;20684;-49
2022/08/17 01:58:12;;;;;;;9.13;8.43;;;20.10;89.40;;;;;;6248907;23;20376;-48
2022/08/17 02:00:40;;;;;;;8.50;7.80;;;20.00;89.30;;;;;;6250031;23;20391;-47
2022/08/17 02:03:06;;;;;;;9.60;8.80;;;20.10;89.50;;;;;;6249978;23;20381;-48
2022/08/17 02:05:32;;;;;;;9.13;8.50;;;20.00;89.40;;;;;;6249746;23;20456;-49
2022/08/17 02:07:58;;;;;;;9.43;8.70;;;20.00;89.50;;;;;;6249578;23;20385;-49
2022/08/17 02:10:25;;;;;;;10.10;9.40;;;20.00;89.70;;;;;;6249246;23;20196;-49
2022/08/17 02:12:51;;;;;;;10.20;9.30;;;20.00;89.90;;;;;;6249785;23;20904;-49
2022/08/17 02:15:19;;;;;;;9.43;8.63;;;20.00;89.90;;;;;;6250566;23;20469;-48
2022/08/17 02:17:45;;;;;;;9.20;8.40;;;20.00;90.00;;;;;;6249787;23;20455;-47
2022/08/17 02:20:11;;;;;;;8.67;8.07;;;20.00;90.00;;;;;;6249840;23;20444;-47
2022/08/17 02:22:38;;;;;;;9.80;9.07;;;20.00;90.00;;;;;;6249809;23;20152;-47
2022/08/17 02:25:05;;;;;;;10.30;9.50;;;19.90;90.00;;;;;;6249563;23;20160;-45
2022/08/17 02:27:34;;;;;;;9.43;8.47;;;20.00;90.00;;;;;;6247360;23;20433;-48
2022/08/17 02:29:59;;;;;;;9.23;8.63;;;20.00;90.00;;;;;;6248890;23;20386;-48
2022/08/17 02:32:25;;;;;;;8.43;7.83;;;20.00;90.10;;;;;;6247774;23;20398;-48
2022/08/17 02:34:51;;;;;;;10.70;9.57;;;19.90;90.00;;;;;;6247326;23;20480;-48
2022/08/17 02:37:17;;;;;;;9.20;8.40;;;19.90;90.10;;;;;;6248502;23;20360;-49
2022/08/17 02:39:45;;;;;;;8.90;8.20;;;19.90;90.20;;;;;;6248858;23;20162;-47
2022/08/17 02:42:12;;;;;;;8.63;8.03;;;19.90;90.20;;;;;;6248983;23;20537;-46
2022/08/17 02:44:39;;;;;;;9.33;8.53;;;19.90;90.20;;;;;;6248852;22;20390;-52
2022/08/17 02:47:05;;;;;;;8.70;8.00;;;19.90;90.30;;;;;;6249524;23;20370;-50
2022/08/17 02:49:30;;;;;;;9.77;8.87;;;19.80;90.30;;;;;;6248811;23;20360;-45
2022/08/17 02:51:57;;;;;;;9.50;8.80;;;19.80;90.30;;;;;;6249105;23;20756;-47
2022/08/17 02:54:23;;;;;;;8.70;7.90;;;19.80;90.40;;;;;;6247960;23;20430;-48
2022/08/17 02:56:49;;;;;;;9.00;8.30;;;19.80;90.40;;;;;;6249397;23;20838;-48
2022/08/17 02:59:15;;;;;;;9.23;8.40;;;19.80;90.40;;;;;;6248051;23;20447;-48
2022/08/17 03:01:40;;;;;;;8.73;8.13;;;19.80;90.50;;;;;;6249383;23;20511;-47
2022/08/17 03:04:06;;;;;;;8.93;8.30;;;19.80;90.50;;;;;;6248567;23;20189;-48
2022/08/17 03:06:31;;;;;;;9.20;8.50;;;19.70;90.50;;;;;;6247983;23;20177;-50
2022/08/17 03:08:57;;;;;;;9.23;8.53;;;19.70;90.60;;;;;;6248097;23;20149;-47
2022/08/17 03:11:23;;;;;;;8.43;7.83;;;19.70;90.60;;;;;;6247751;23;20152;-47
2022/08/17 03:13:49;;;;;;;9.13;8.40;;;19.70;90.60;;;;;;6247518;23;20403;-47
2022/08/17 03:16:14;;;;;;;9.53;8.60;;;19.70;90.70;;;;;;6248327;23;20170;-47
2022/08/17 03:18:40;;;;;;;9.43;8.63;;;19.70;90.70;;;;;;6248511;23;20466;-47
2022/08/17 03:21:07;;;;;;;9.37;8.50;;;19.60;90.70;;;;;;6248893;23;20157;-47
2022/08/17 03:23:39;;;;;;;9.60;8.90;;;19.60;90.70;;;;;;6247929;23;20176;-46
2022/08/17 03:26:06;;;;;;;8.83;8.23;;;19.60;90.70;;;;;;6248782;23;20582;-47
2022/08/17 03:28:32;;;;;;;8.97;8.23;;;19.60;90.80;;;;;;6247825;23;20863;-51
2022/08/17 03:30:58;;;;;;;9.13;8.43;;;19.60;90.90;;;;;;6247787;23;20377;-51
2022/08/17 03:33:24;;;;;;;9.60;8.80;;;19.60;90.90;;;;;;6248273;23;20367;-48
2022/08/17 03:35:50;;;;;;;8.67;8.07;;;19.60;90.90;;;;;;6248338;23;20186;-46
2022/08/17 03:38:16;;;;;;;9.20;8.40;;;19.50;90.90;;;;;;6249555;23;20419;-50
2022/08/17 03:40:46;;;;;;;9.07;8.40;;;19.60;91.00;;;;;;6247856;23;20473;-47
2022/08/17 03:43:12;;;;;;;9.87;9.07;;;19.60;91.00;;;;;;6246956;23;20712;-46
2022/08/17 03:57:06;;;;;;;9.50;8.70;;;19.50;91.20;;;;;;6246110;23;20430;-48
2022/08/17 03:59:33;;;;;;;9.40;8.47;;;19.50;91.20;;;;;;6246344;23;20360;-49
2022/08/17 04:02:08;;;;;;;9.93;9.03;;;19.50;91.30;;;;;;6220439;23;20402;-52
2022/08/17 04:04:35;;;;;;;10.80;9.87;;;19.40;91.30;;;;;;6246570;23;20355;-47
2022/08/17 04:07:01;;;;;;;10.43;9.53;;;19.40;91.30;;;;;;6248320;23;20414;-48
2022/08/17 04:09:26;;;;;;;9.90;9.10;;;19.40;91.40;;;;;;6246960;23;20660;-47
2022/08/17 04:11:53;;;;;;;9.87;9.07;;;19.40;91.40;;;;;;6246966;23;20449;-49
2022/08/17 04:14:19;;;;;;;10.60;9.70;;;19.40;91.50;;;;;;6247029;23;20361;-49
2022/08/17 04:16:44;;;;;;;9.70;9.03;;;19.40;91.50;;;;;;6247265;23;20481;-46
2022/08/17 04:19:10;;;;;;;11.40;10.43;;;19.40;91.60;;;;;;6245375;23;20360;-48
2022/08/17 04:21:36;;;;;;;10.70;9.90;;;19.40;91.50;;;;;;6246996;22;20177;-47
2022/08/17 04:24:02;;;;;;;10.43;9.43;;;19.40;91.50;;;;;;6247803;23;20139;-47
2022/08/17 04:26:28;;;;;;;11.17;10.20;;;19.40;91.50;;;;;;6247987;23;20130;-47
2022/08/17 04:28:54;;;;;;;10.27;9.47;;;19.40;91.40;;;;;;6248400;23;20359;-48
2022/08/17 04:31:20;;;;;;;9.73;8.93;;;19.40;91.40;;;;;;6248007;23;20613;-52
2022/08/17 04:33:45;;;;;;;10.30;9.40;;;19.40;91.40;;;;;;6250276;23;20433;-52
2022/08/17 04:36:13;;;;;;;9.80;9.10;;;19.50;91.30;;;;;;6250742;23;20172;-53
2022/08/17 04:38:42;;;;;;;9.80;9.00;;;19.60;91.20;;;;;;6250119;23;20154;-57
2022/08/17 04:43:57;;;;;;;9.50;8.70;;;19.70;91.00;;;;;;6248881;23;20796;-53
2022/08/17 04:46:34;;;;;;;9.87;9.10;;;19.70;90.90;;;;;;6248081;23;20364;-51
2022/08/17 04:49:02;;;;;;;10.13;9.33;;;19.80;90.90;;;;;;6250072;23;20731;-50
2022/08/17 04:51:48;;;;;;;9.90;9.00;;;19.80;90.80;;;;;;6249870;23;20450;-53
2022/08/17 04:54:19;;;;;;;9.70;8.90;;;19.90;90.80;;;;;;6251220;23;20815;-50
2022/08/17 04:56:45;;;;;;;9.60;8.70;;;20.00;90.70;;;;;;6250484;23;20427;-49
2022/08/17 04:59:16;;;;;;;8.93;8.33;;;20.10;90.60;;;;;;6248813;23;20363;-51
2022/08/17 05:01:44;;;;;;;9.97;9.17;;;20.10;90.40;;;;;;6250467;23;20389;-52
2022/08/17 05:04:12;;;;;;;10.87;9.77;;;20.20;90.40;;;;;;6251113;23;20362;-51
2022/08/17 05:06:38;;;;;;;10.87;9.97;;;20.30;90.20;;;;;;6249782;23;20382;-51
2022/08/17 05:09:04;;;;;;;10.50;9.03;;;20.40;90.10;;;;;;6249780;23;20474;-51
2022/08/17 05:11:30;;;;;;;10.10;9.30;;;20.50;90.00;;;;;;6248341;23;20145;-52
2022/08/17 05:13:57;;;;;;;9.70;8.80;;;20.60;89.70;;;;;;6249379;23;20211;-49
2022/08/17 05:16:24;;;;;;;9.17;8.47;;;20.70;89.50;;;;;;6248064;23;20423;-49
2022/08/17 05:18:50;;;;;;;8.37;7.77;;;20.80;89.10;;;;;;6248733;23;20357;-52
2022/08/17 05:21:16;;;;;;;9.00;8.27;;;20.90;88.80;;;;;;6246660;23;20367;-54
2022/08/17 05:23:44;;;;;;;9.00;8.30;;;21.00;88.50;;;;;;6245517;23;20140;-50
2022/08/17 05:26:12;;;;;;;9.70;8.90;;;21.10;88.10;;;;;;6246781;23;20637;-50
2022/08/17 05:28:37;;;;;;;7.77;7.20;;;21.10;87.70;;;;;;6247477;23;20382;-52
2022/08/17 05:31:03;;;;;;;8.90;8.20;;;21.20;87.60;;;;;;6247176;23;20384;-51
2022/08/17 05:33:35;;;;;;;9.40;8.60;;;21.20;87.50;;;;;;6247715;23;21142;-52
2022/08/17 05:36:02;;;;;;;9.93;9.13;;;21.20;87.30;;;;;;6243231;23;20172;-53
2022/08/17 05:38:29;;;;;;;9.03;8.40;;;21.30;87.10;;;;;;6244090;23;20378;-49
2022/08/17 05:40:55;;;;;;;10.03;9.20;;;21.40;86.80;;;;;;6245348;23;20439;-52
2022/08/17 05:43:26;;;;;;;9.30;8.60;;;21.40;86.60;;;;;;6244066;23;20642;-51
2022/08/17 05:46:11;;;;;;;10.60;9.80;;;21.50;86.50;;;;;;6245237;22;20366;-50
2022/08/17 05:48:47;;;;;;;10.50;9.70;;;21.60;86.20;;;;;;6246361;23;20376;-53
2022/08/17 05:51:19;;;;;;;10.23;9.33;;;21.60;86.00;;;;;;6245831;23;20358;-54
2022/08/17 05:54:03;;;;;;;9.63;8.60;;;21.70;85.90;;;;;;6246391;23;20429;-54
2022/08/17 05:56:54;;;;;;;10.00;9.07;;;21.80;85.50;;;;;;6247654;23;20408;-58
2022/08/17 05:59:36;;;;;;;9.17;8.47;;;21.90;84.90;;;;;;6244936;23;20654;-51
2022/08/17 06:02:35;;;;;;;9.77;8.97;;;22.00;84.50;;;;;;6248004;23;20387;-51
2022/08/17 06:05:52;;;;;;;8.90;8.20;;;22.00;84.00;;;;;;6249684;23;20665;-50
2022/08/17 06:08:39;;;;;;;9.27;8.50;;;22.00;83.20;;;;;;6209472;22;20402;-49
2022/08/17 06:11:32;;;;;;;10.10;9.30;;;22.10;83.30;;;;;;6249036;22;20356;-51
2022/08/17 06:14:16;;;;;;;9.30;8.60;;;22.20;83.40;;;;;;6245195;23;20786;-49
2022/08/17 06:16:45;;;;;;;11.13;10.23;;;22.20;83.10;;;;;;6249154;23;20410;-52
2022/08/17 06:19:10;;;;;;;10.90;10.00;;;22.30;83.50;;;;;;6248916;23;20486;-50
2022/08/17 06:21:40;;;;;;;10.20;9.40;;;22.40;83.40;;;;;;6249781;23;20375;-52
2022/08/17 06:24:24;;;;;;;11.03;10.00;;;22.50;83.10;;;;;;6244816;23;20153;-52
2022/08/17 06:26:51;;;;;;;10.13;9.00;;;22.60;82.40;;;;;;6247403;23;20674;-53
2022/08/17 06:29:41;;;;;;;10.20;9.40;;;22.70;82.10;;;;;;6246858;23;20417;-50
2022/08/17 06:32:09;;;;;;;10.40;9.40;;;22.80;81.60;;;;;;6247115;23;20377;-51
2022/08/17 06:34:36;;;;;;;10.30;9.50;;;22.90;81.40;;;;;;6247331;23;20442;-50
2022/08/17 06:37:24;;;;;;;10.87;9.93;;;23.00;80.70;;;;;;6246195;23;20414;-52
2022/08/17 06:40:07;;;;;;;9.50;8.80;;;23.20;80.30;;;;;;6249450;23;20380;-50
2022/08/17 06:43:14;;;;;;;9.93;9.07;;;23.30;80.30;;;;;;6247681;23;20352;-56
2022/08/17 06:45:47;;;;;;;10.10;9.10;;;23.30;80.00;;;;;;6229678;23;20398;-53
2022/08/17 06:48:23;;;;;;;10.50;8.37;;;23.40;79.80;;;;;;6243766;23;20487;-50
2022/08/17 06:50:59;;;;;;;9.20;8.40;;;23.40;79.20;;;;;;6244604;23;20368;-52
2022/08/17 06:53:44;;;;;;;9.57;8.77;;;23.40;78.10;;;;;;6242736;23;20374;-54
2022/08/17 06:56:26;;;;;;;8.67;7.97;;;23.40;78.10;;;;;;6244879;23;20401;-53
2022/08/17 06:58:55;;;;;;;9.97;8.97;;;23.50;78.60;;;;;;6244719;23;20375;-53
2022/08/17 07:01:25;;;;;;;9.33;8.63;;;23.70;78.30;;;;;;6246427;23;20356;-50
2022/08/17 07:04:03;;;;;;;9.90;8.90;;;23.80;77.10;;;;;;6246646;23;20378;-50
2022/08/17 07:06:33;;;;;;;9.00;8.10;;;23.90;76.50;;;;;;6246254;23;20395;-53
2022/08/17 07:09:07;;;;;;;9.60;8.80;;;24.10;76.30;;;;;;6243655;23;20390;-52
2022/08/17 07:11:51;;;;;;;8.77;8.07;;;24.30;75.50;;;;;;6245387;23;20655;-53
2022/08/17 07:14:37;;;;;;;9.77;8.50;;;24.50;74.50;;;;;;6246631;23;20376;-51
2022/08/17 07:17:10;;;;;;;9.83;8.90;;;24.80;74.40;;;;;;6246806;23;20505;-52
2022/08/17 07:19:39;;;;;;;8.70;8.00;;;25.00;73.20;;;;;;6220558;23;20392;-51
2022/08/17 07:22:17;;;;;;;8.57;7.77;;;25.20;71.30;;;;;;6246492;23;20416;-53
2022/08/17 07:24:57;;;;;;;9.10;8.30;;;25.50;69.60;;;;;;6246634;23;20415;-51
2022/08/17 07:27:31;;;;;;;8.37;7.67;;;25.70;68.40;;;;;;6247714;23;20711;-51
2022/08/17 07:30:10;;;;;;;9.77;8.97;;;26.00;67.80;;;;;;6221761;23;20395;-53
2022/08/17 07:32:41;;;;;;;9.67;8.90;;;26.20;67.60;;;;;;6246440;23;20376;-51
2022/08/17 07:35:20;;;;;;;9.20;8.33;;;26.30;67.10;;;;;;6221571;23;20463;-52
2022/08/17 07:38:17;;;;;;;9.13;8.43;;;26.30;66.50;;;;;;6244916;23;20382;-52
2022/08/17 07:41:01;;;;;;;9.60;8.80;;;26.20;66.50;;;;;;6248516;23;20669;-55
2022/08/17 07:43:45;;;;;;;9.17;8.43;;;26.30;66.50;;;;;;6246179;23;20382;-51
2022/08/17 07:49:13;;;;;;;8.90;8.20;;;26.40;65.90;;;;;;6246437;23;20378;-53
2022/08/17 07:51:58;;;;;;;8.90;8.07;;;26.10;66.50;;;;;;6246078;23;20378;-55
2022/08/17 07:54:35;;;;;;;9.10;8.30;;;25.90;66.70;;;;;;6245444;23;20418;-55
2022/08/17 07:57:13;;;;;;;7.70;7.13;;;25.80;66.90;;;;;;6248740;23;20416;-52
2022/08/17 07:59:42;;;;;;;8.90;8.30;;;25.80;66.40;;;;;;6249968;23;20440;-51
2022/08/17 08:02:40;;;;;;;9.30;8.60;;;25.90;66.30;;;;;;6249458;23;20802;-52
2022/08/17 08:05:11;;;;;;;9.30;8.60;;;25.90;66.30;;;;;;6247948;23;20627;-54
2022/08/17 08:07:38;;;;;;;10.23;9.43;;;26.00;66.10;;;;;;6248667;23;20471;-52
2022/08/17 08:10:07;;;;;;;9.50;8.83;;;25.90;66.60;;;;;;6248416;23;20383;-54
2022/08/17 08:12:39;;;;;;;9.87;8.97;;;25.90;67.00;;;;;;6248493;22;20333;-51
2022/08/17 08:15:17;;;;;;;9.03;8.33;;;25.90;66.40;;;;;;6244914;23;20408;-53
2022/08/17 08:17:54;;;;;;;9.70;8.90;;;25.90;66.40;;;;;;6245967;23;20846;-53
2022/08/17 08:20:51;;;;;;;9.90;9.10;;;25.80;67.20;;;;;;6246029;23;20402;-54
2022/08/17 08:23:24;;;;;;;8.97;8.17;;;25.60;65.60;;;;;;6246270;23;20373;-52
2022/08/17 08:26:13;;;;;;;9.90;8.90;;;25.30;66.00;;;;;;6248034;22;20698;-52
2022/08/17 08:29:03;;;;;;;8.60;8.00;;;25.20;66.60;;;;;;6245085;23;20367;-56
2022/08/17 08:32:06;;;;;;;9.13;8.47;;;25.00;65.90;;;;;;6247480;23;20837;-55
2022/08/17 08:35:08;;;;;;;10.17;9.27;;;24.90;66.10;;;;;;6247830;22;20491;-56
2022/08/17 08:37:52;;;;;;;8.70;8.10;;;24.70;65.50;;;;;;6247689;23;20701;-50
2022/08/17 08:40:52;;;;;;;8.57;7.87;;;24.70;66.40;;;;;;6245073;23;20388;-55
2022/08/17 08:43:18;;;;;;;9.63;8.93;;;24.60;64.90;;;;;;6221943;23;20587;-53
2022/08/17 08:46:07;;;;;;;8.50;7.80;;;24.60;65.40;;;;;;6250451;23;20362;-52
2022/08/17 08:49:00;;;;;;;9.33;8.57;;;24.60;67.00;;;;;;6247439;23;20159;-54
2022/08/17 08:51:45;;;;;;;9.97;9.27;;;24.60;67.20;;;;;;6248083;22;20364;-56
2022/08/17 08:54:45;;;;;;;8.83;8.07;;;24.60;66.90;;;;;;6248393;23;20459;-54
2022/08/17 08:57:18;;;;;;;8.80;8.10;;;24.60;66.40;;;;;;6247827;23;20404;-51
2022/08/17 09:00:09;;;;;;;9.00;8.20;;;24.70;67.20;;;;;;6221323;23;20372;-54
2022/08/17 09:03:02;;;;;;;8.87;8.27;;;24.70;67.60;;;;;;6243434;23;20764;-56
2022/08/17 09:05:55;;;;;;;8.47;7.80;;;24.70;67.80;;;;;;6247363;23;20751;-54
2022/08/17 09:08:20;;;;;;;8.90;8.30;;;24.80;67.30;;;;;;6249042;23;20394;-53
2022/08/17 09:10:52;;;;;;;9.23;8.53;;;24.70;66.70;;;;;;6247227;23;20357;-52
2022/08/17 09:13:17;;;;;;;8.50;7.90;;;24.60;67.00;;;;;;6248375;23;20156;-55
2022/08/17 09:15:46;;;;;;;9.60;8.60;;;24.50;69.90;;;;;;6247826;23;20396;-55
2022/08/17 09:18:20;;;;;;;9.30;8.60;;;24.40;72.10;;;;;;6248827;23;20161;-54
2022/08/17 09:20:50;;;;;;;9.47;8.77;;;24.20;74.50;;;;;;6247170;23;20396;-51
2022/08/17 09:23:32;;;;;;;9.10;8.30;;;24.10;75.00;;;;;;6248266;23;20380;-55
2022/08/17 09:26:38;;;;;;;8.70;7.83;;;24.00;76.30;;;;;;6249465;23;20372;-56
2022/08/17 09:29:11;;;;;;;9.37;8.60;;;23.90;75.90;;;;;;6248595;23;20409;-53
2022/08/17 09:31:54;;;;;;;8.97;8.17;;;23.90;77.10;;;;;;6248629;23;20683;-53
2022/08/17 09:34:41;;;;;;;7.60;7.00;;;23.80;78.80;;;;;;6247310;23;20529;-50
2022/08/17 09:37:24;;;;;;;8.47;7.67;;;23.70;78.10;;;;;;6247234;23;20422;-52
2022/08/17 09:40:08;;;;;;;7.57;6.90;;;23.70;80.50;;;;;;6247521;23;20824;-53
2022/08/17 09:42:51;;;;;;;8.83;8.00;;;23.50;81.60;;;;;;6248883;23;20682;-51
2022/08/17 09:46:03;;;;;;;8.80;7.97;;;23.40;82.90;;;;;;6246036;23;20364;-54
2022/08/17 09:48:36;;;;;;;8.53;7.90;;;23.40;83.50;;;;;;6193118;23;20395;-52
2022/08/17 09:51:06;;;;;;;7.67;7.07;;;23.40;84.40;;;;;;6246730;23;20368;-55
2022/08/17 09:53:35;;;;;;;9.37;8.60;;;23.40;85.30;;;;;;6247241;22;21087;-53
2022/08/17 09:56:30;;;;;;;9.37;8.53;;;23.40;85.20;;;;;;6247804;23;20419;-54
2022/08/17 09:59:34;;;;;;;8.20;7.40;;;23.40;87.10;;;;;;6246696;23;20386;-55
2022/08/17 10:02:24;;;;;;;8.27;7.20;;;23.40;87.40;;;;;;6218528;22;20383;-53
2022/08/17 10:05:12;;;;;;;8.00;7.40;;;23.50;88.20;;;;;;6247856;23;20390;-56
2022/08/17 10:07:54;;;;;;;8.40;7.80;;;23.50;88.40;;;;;;6245165;23;20366;-50
2022/08/17 10:10:28;;;;;;;9.33;8.63;;;23.70;89.20;;;;;;6246801;23;20378;-53
2022/08/17 10:13:09;;;;;;;8.50;7.73;;;23.80;89.20;;;;;;6246776;23;20426;-54
2022/08/17 10:15:59;;;;;;;8.40;7.70;;;24.00;88.40;;;;;;6244134;23;20419;-51
2022/08/17 10:18:55;;;;;;;7.20;6.70;;;24.20;87.60;;;;;;6245993;23;20357;-50
2022/08/17 10:27:16;;;;;;;8.10;7.30;;;24.30;85.80;;;;;;6244559;23;20655;-45
2022/08/17 10:29:59;;;;;;;8.33;7.57;;;24.30;85.30;;;;;;6243940;23;20376;-45
2022/08/17 10:32:37;;;;;;;7.60;6.90;;;24.10;86.10;;;;;;6244921;23;20412;-46
2022/08/17 10:35:08;;;;;;;8.00;7.40;;;24.00;87.50;;;;;;6243676;23;20434;-44
2022/08/17 10:38:03;;;;;;;8.27;7.50;;;23.90;88.30;;;;;;6244203;23;20388;-47
2022/08/17 10:40:35;;;;;;;7.67;7.03;;;23.70;85.20;;;;;;6243902;22;20393;-47
2022/08/17 10:43:13;;;;;;;9.23;8.43;;;23.70;86.90;;;;;;6244654;23;20384;-48
2022/08/17 10:45:51;;;;;;;12.23;8.80;;;23.60;89.10;;;;;;6244566;23;20364;-45
2022/08/17 10:48:26;;;;;;;11.63;8.60;;;23.40;90.40;;;;;;6243490;23;20434;-44
2022/08/17 10:50:58;;;;;;;9.50;8.00;;;23.30;91.90;;;;;;6245907;23;20379;-50
2022/08/17 10:53:48;;;;;;;8.73;7.83;;;23.10;93.10;;;;;;6245086;23;20380;-47
2022/08/17 10:56:16;;;;;;;8.90;8.10;;;23.10;94.50;;;;;;6246689;23;20481;-44
2022/08/17 10:58:57;;;;;;;8.87;8.03;;;23.00;95.00;;;;;;6247586;22;20467;-43
2022/08/17 11:01:32;;;;;;;8.33;7.63;;;22.90;95.20;;;;;;6243642;23;20357;-44
2022/08/17 11:04:08;;;;;;;8.70;8.00;;;22.80;95.40;;;;;;6247248;23;20681;-47
2022/08/17 11:07:10;;;;;;;8.83;7.90;;;22.70;95.70;;;;;;6247819;23;20648;-46
2022/08/17 11:09:50;;;;;;;8.90;8.20;;;22.60;95.70;;;;;;6211901;23;20398;-45
2022/08/17 11:12:25;;;;;;;8.63;7.83;;;22.50;96.00;;;;;;6245063;23;20392;-45
2022/08/17 11:15:01;;;;;;;13.40;8.47;;;22.40;96.90;;;;;;6244156;23;20441;-44
2022/08/17 11:17:49;;;;;;;9.00;8.20;;;22.20;96.00;;;;;;6246727;23;20382;-46
2022/08/17 11:20:33;;;;;;;9.23;8.33;;;21.70;96.30;;;;;;6245762;22;20799;-44
2022/08/17 11:23:02;;;;;;;9.20;8.40;;;21.50;97.00;;;;;;6246199;23;20378;-44
2022/08/17 11:25:40;;;;;;;9.13;8.30;;;21.50;97.50;;;;;;6243327;23;20378;-48
2022/08/17 11:28:18;;;;;;;9.30;8.50;;;21.50;97.90;;;;;;6246983;23;20394;-50
2022/08/17 11:30:49;;;;;;;9.57;8.70;;;21.50;98.20;;;;;;6246105;23;20419;-45
2022/08/17 11:33:33;;;;;;;9.70;8.80;;;21.60;98.60;;;;;;6245096;23;20860;-45
2022/08/17 11:36:18;;;;;;;9.90;8.90;;;21.70;99.30;;;;;;6249745;23;20811;-45
2022/08/17 11:38:45;;;;;;;9.20;8.40;;;22.00;99.90;;;;;;6247068;22;20370;-46
2022/08/17 11:41:47;;;;;;;9.93;9.13;;;22.10;99.70;;;;;;6246151;23;20342;-44
2022/08/17 11:44:27;;;;;;;9.33;8.50;;;22.30;98.10;;;;;;6246193;23;20793;-45
2022/08/17 11:52:38;;;;;;;10.00;9.10;;;22.40;98.00;;;;;;6247718;23;20408;-43
2022/08/17 11:55:08;;;;;;;10.03;9.03;;;22.50;97.10;;;;;;6247523;22;20481;-44
2022/08/17 11:57:39;;;;;;;8.90;8.10;;;22.60;97.00;;;;;;6248041;23;20388;-45
2022/08/17 12:00:43;;;;;;;10.60;9.60;;;22.80;96.40;;;;;;6248053;23;20359;-45
2022/08/17 12:03:42;;;;;;;10.07;9.27;;;23.00;96.00;;;;;;6249124;23;20773;-45
2022/08/17 12:06:35;;;;;;;8.40;7.70;;;23.20;96.60;;;;;;6245747;23;20354;-46
2022/08/17 12:09:26;;;;;;;10.33;9.50;;;23.40;97.00;;;;;;6247021;23;20391;-47
2022/08/17 12:12:09;;;;;;;9.10;8.20;;;23.70;97.10;;;;;;6247810;23;20369;-43
2022/08/17 12:14:36;;;;;;;8.70;8.00;;;23.80;96.70;;;;;;6248546;23;20955;-46
2022/08/17 12:17:08;;;;;;;8.33;7.63;;;23.90;96.70;;;;;;6247677;23;21040;-44
2022/08/17 12:19:36;;;;;;;8.10;7.40;;;24.00;95.80;;;;;;6247652;23;20405;-44
2022/08/17 12:22:32;;;;;;;8.43;7.73;;;24.10;94.90;;;;;;6245140;23;20416;-47
2022/08/17 12:25:17;;;;;;;9.10;8.40;;;24.10;94.70;;;;;;6241221;23;20721;-46
2022/08/17 12:27:48;;;;;;;8.50;7.87;;;24.20;95.10;;;;;;6244758;22;20387;-44
2022/08/17 12:30:19;;;;;;;8.73;8.13;;;24.30;95.60;;;;;;6244510;23;20422;-47
2022/08/17 12:32:47;;;;;;;8.00;7.37;;;24.30;96.10;;;;;;6246130;22;20655;-43
2022/08/17 12:35:34;;;;;;;9.03;8.33;;;24.50;96.50;;;;;;6244157;23;20807;-44
2022/08/17 12:38:02;;;;;;;8.87;8.07;;;24.70;96.20;;;;;;6246148;23;20652;-43
2022/08/17 12:40:30;;;;;;;8.70;8.00;;;24.80;96.20;;;;;;6243905;23;20790;-46
2022/08/17 12:43:17;;;;;;;8.40;7.70;;;25.10;96.20;;;;;;6244674;23;20619;-47
2022/08/17 12:45:43;;;;;;;8.13;7.43;;;25.50;95.40;;;;;;6245323;23;20661;-44
2022/08/17 12:48:20;;;;;;;8.70;8.10;;;26.10;94.70;;;;;;6246536;23;20361;-47
2022/08/17 12:50:47;;;;;;;9.37;8.47;;;27.10;92.10;;;;;;6246881;22;20379;-46
2022/08/17 12:53:19;;;;;;;7.00;6.50;;;28.20;86.40;;;;;;6245256;23;20364;-45
2022/08/17 12:55:45;;;;;;;8.00;7.43;;;29.40;76.80;;;;;;6246839;23;20438;-45
2022/08/17 12:58:16;;;;;;;7.70;7.00;;;30.20;73.00;;;;;;6246595;23;20425;-45
2022/08/17 13:00:47;;;;;;;7.63;6.93;;;30.90;63.70;;;;;;6244610;23;20402;-44
2022/08/17 13:03:22;;;;;;;7.47;6.97;;;31.60;54.90;;;;;;6245452;23;20356;-47
2022/08/17 13:05:51;;;;;;;7.13;6.63;;;32.20;52.50;;;;;;6248060;23;20389;-45
2022/08/17 13:08:20;;;;;;;6.73;6.23;;;32.80;51.90;;;;;;6248413;23;20339;-45
2022/08/17 13:11:00;;;;;;;6.30;5.90;;;33.30;48.20;;;;;;6247358;23;20404;-47
2022/08/17 13:13:28;;;;;;;6.90;6.30;;;33.50;46.40;;;;;;6246374;23;20392;-46
2022/08/17 13:16:00;;;;;;;7.20;6.60;;;33.50;45.30;;;;;;6247320;23;20396;-47
2022/08/17 13:18:28;;;;;;;7.20;6.60;;;33.40;44.90;;;;;;6247838;23;20344;-45
2022/08/17 13:20:57;;;;;;;7.27;6.70;;;33.30;44.20;;;;;;6247571;23;20397;-44
2022/08/17 13:23:23;;;;;;;7.07;6.57;;;33.10;44.70;;;;;;6245718;23;20895;-47
2022/08/17 13:25:59;;;;;;;6.40;5.93;;;32.40;44.00;;;;;;6244545;23;20388;-44
2022/08/17 13:28:26;;;;;;;7.00;6.50;;;32.40;45.00;;;;;;6245296;23;20340;-47
2022/08/17 13:30:52;;;;;;;7.47;6.97;;;32.30;44.50;;;;;;6246658;23;20390;-46
2022/08/17 13:33:29;;;;;;;7.30;6.80;;;32.50;43.60;;;;;;6245035;23;20396;-46
2022/08/17 13:36:06;;;;;;;7.07;6.57;;;32.40;42.70;;;;;;6246199;23;20443;-46
2022/08/17 13:38:46;;;;;;;6.73;6.17;;;32.60;42.70;;;;;;6245069;23;20338;-48
2022/08/17 13:41:35;;;;;;;6.97;6.37;;;33.20;43.60;;;;;;6246856;23;20469;-47
2022/08/17 13:44:03;;;;;;;6.03;5.63;;;33.20;41.50;;;;;;6246999;23;20440;-49
2022/08/17 13:46:31;;;;;;;6.13;5.73;;;34.10;41.80;;;;;;6246640;23;20388;-47
2022/08/17 13:49:05;;;;;;;6.30;5.80;;;34.40;38.70;;;;;;6245968;23;20360;-50
2022/08/17 13:51:45;;;;;;;7.03;6.60;;;34.30;38.70;;;;;;6243353;23;20766;-47